sensor_id;sensor_type;location;lat;lon;timestamp;P1;durP1;ratioP1;P2;durP2;ratioP2
84889;SDS011;75153;52.222;5.160;2024-03-25T00:00:27;10.23;;;1.50;;
84889;SDS011;75153;52.222;5.160;2024-03-25T00:02:53;16.23;;;1.70;;
84889;SDS011;75153;52.222;5.160;2024-03-25T00:05:19;14.05;;;1.67;;
84889;SDS011;75153;52.222;5.160;2024-03-25T00:07:47;12.10;;;1.75;;
84889;SDS011;75153;52.222;5.160;2024-03-25T00:10:14;7.07;;;1.35;;
84889;SDS011;75153;52.222;5.160;2024-03-25T00:12:39;11.73;;;1.60;;
84889;SDS011;75153;52.222;5.160;2024-03-25T00:15:05;12.15;;;1.50;;
84889;SDS011;75153;52.222;5.160;2024-03-25T00:17:31;15.17;;;1.63;;
84889;SDS011;75153;52.222;5.160;2024-03-25T00:19:56;6.97;;;1.52;;
84889;SDS011;75153;52.222;5.160;2024-03-25T00:22:23;9.25;;;1.67;;
84889;SDS011;75153;52.222;5.160;2024-03-25T00:24:50;9.68;;;1.60;;
84889;SDS011;75153;52.222;5.160;2024-03-25T00:27:16;7.18;;;1.25;;
84889;SDS011;75153;52.222;5.160;2024-03-25T00:29:42;12.97;;;1.63;;
84889;SDS011;75153;52.222;5.160;2024-03-25T00:32:09;15.60;;;1.75;;
84889;SDS011;75153;52.222;5.160;2024-03-25T00:34:35;14.45;;;1.60;;
84889;SDS011;75153;52.222;5.160;2024-03-25T00:37:02;10.13;;;1.75;;
84889;SDS011;75153;52.222;5.160;2024-03-25T00:39:27;6.70;;;1.50;;
84889;SDS011;75153;52.222;5.160;2024-03-25T00:41:54;6.90;;;1.47;;
84889;SDS011;75153;52.222;5.160;2024-03-25T00:44:19;11.25;;;1.83;;
84889;SDS011;75153;52.222;5.160;2024-03-25T00:46:45;11.33;;;1.40;;
84889;SDS011;75153;52.222;5.160;2024-03-25T00:49:11;13.25;;;1.67;;
84889;SDS011;75153;52.222;5.160;2024-03-25T00:51:37;10.10;;;1.50;;
84889;SDS011;75153;52.222;5.160;2024-03-25T00:54:02;13.63;;;1.43;;
84889;SDS011;75153;52.222;5.160;2024-03-25T00:56:28;14.13;;;1.80;;
84889;SDS011;75153;52.222;5.160;2024-03-25T00:58:54;10.70;;;1.52;;
84889;SDS011;75153;52.222;5.160;2024-03-25T01:01:20;12.00;;;1.80;;
84889;SDS011;75153;52.222;5.160;2024-03-25T01:03:46;14.20;;;1.98;;
84889;SDS011;75153;52.222;5.160;2024-03-25T01:06:11;11.63;;;2.20;;
84889;SDS011;75153;52.222;5.160;2024-03-25T01:08:36;15.77;;;2.20;;
84889;SDS011;75153;52.222;5.160;2024-03-25T01:11:02;7.50;;;1.40;;
84889;SDS011;75153;52.222;5.160;2024-03-25T01:13:27;10.50;;;1.67;;
84889;SDS011;75153;52.222;5.160;2024-03-25T01:15:53;10.13;;;1.87;;
84889;SDS011;75153;52.222;5.160;2024-03-25T01:18:18;11.75;;;1.40;;
84889;SDS011;75153;52.222;5.160;2024-03-25T01:20:43;15.57;;;1.70;;
84889;SDS011;75153;52.222;5.160;2024-03-25T01:23:09;13.27;;;1.70;;
84889;SDS011;75153;52.222;5.160;2024-03-25T01:25:35;10.07;;;1.60;;
84889;SDS011;75153;52.222;5.160;2024-03-25T01:28:00;11.10;;;1.37;;
84889;SDS011;75153;52.222;5.160;2024-03-25T01:30:26;10.75;;;1.50;;
84889;SDS011;75153;52.222;5.160;2024-03-25T01:32:53;11.68;;;1.55;;
84889;SDS011;75153;52.222;5.160;2024-03-25T01:35:19;7.80;;;1.00;;
84889;SDS011;75153;52.222;5.160;2024-03-25T01:37:45;9.25;;;1.35;;
84889;SDS011;75153;52.222;5.160;2024-03-25T01:40:10;7.73;;;1.50;;
84889;SDS011;75153;52.222;5.160;2024-03-25T01:42:36;14.93;;;1.73;;
84889;SDS011;75153;52.222;5.160;2024-03-25T01:45:02;17.10;;;1.77;;
84889;SDS011;75153;52.222;5.160;2024-03-25T01:47:28;9.23;;;1.52;;
84889;SDS011;75153;52.222;5.160;2024-03-25T01:49:56;8.87;;;1.30;;
84889;SDS011;75153;52.222;5.160;2024-03-25T01:52:22;11.82;;;1.67;;
84889;SDS011;75153;52.222;5.160;2024-03-25T01:54:48;13.60;;;1.35;;
84889;SDS011;75153;52.222;5.160;2024-03-25T01:57:14;8.50;;;1.33;;
84889;SDS011;75153;52.222;5.160;2024-03-25T01:59:40;8.82;;;1.35;;
84889;SDS011;75153;52.222;5.160;2024-03-25T02:02:07;9.07;;;1.58;;
84889;SDS011;75153;52.222;5.160;2024-03-25T02:04:33;12.63;;;1.80;;
84889;SDS011;75153;52.222;5.160;2024-03-25T02:06:59;9.53;;;1.17;;
84889;SDS011;75153;52.222;5.160;2024-03-25T02:09:24;12.45;;;1.50;;
84889;SDS011;75153;52.222;5.160;2024-03-25T02:11:52;8.13;;;1.30;;
84889;SDS011;75153;52.222;5.160;2024-03-25T02:14:18;8.47;;;1.40;;
84889;SDS011;75153;52.222;5.160;2024-03-25T02:16:44;9.00;;;1.20;;
84889;SDS011;75153;52.222;5.160;2024-03-25T02:19:09;13.07;;;1.93;;
84889;SDS011;75153;52.222;5.160;2024-03-25T02:21:38;14.40;;;1.20;;
84889;SDS011;75153;52.222;5.160;2024-03-25T02:24:04;13.03;;;1.30;;
84889;SDS011;75153;52.222;5.160;2024-03-25T02:26:33;10.65;;;1.15;;
84889;SDS011;75153;52.222;5.160;2024-03-25T02:28:58;8.03;;;1.27;;
84889;SDS011;75153;52.222;5.160;2024-03-25T02:31:24;12.53;;;1.40;;
84889;SDS011;75153;52.222;5.160;2024-03-25T02:33:49;10.80;;;1.40;;
84889;SDS011;75153;52.222;5.160;2024-03-25T02:36:14;10.57;;;1.60;;
84889;SDS011;75153;52.222;5.160;2024-03-25T02:38:40;6.90;;;1.45;;
84889;SDS011;75153;52.222;5.160;2024-03-25T02:41:05;9.87;;;1.70;;
84889;SDS011;75153;52.222;5.160;2024-03-25T02:43:31;6.73;;;1.30;;
84889;SDS011;75153;52.222;5.160;2024-03-25T02:45:58;11.52;;;1.27;;
84889;SDS011;75153;52.222;5.160;2024-03-25T02:48:23;11.95;;;1.45;;
84889;SDS011;75153;52.222;5.160;2024-03-25T02:50:49;7.88;;;1.10;;
84889;SDS011;75153;52.222;5.160;2024-03-25T02:53:14;9.83;;;1.40;;
84889;SDS011;75153;52.222;5.160;2024-03-25T02:55:39;14.77;;;1.60;;
84889;SDS011;75153;52.222;5.160;2024-03-25T02:58:05;10.77;;;1.87;;
84889;SDS011;75153;52.222;5.160;2024-03-25T03:00:30;12.07;;;2.10;;
84889;SDS011;75153;52.222;5.160;2024-03-25T03:02:56;9.70;;;1.50;;
84889;SDS011;75153;52.222;5.160;2024-03-25T03:05:21;12.90;;;1.30;;
84889;SDS011;75153;52.222;5.160;2024-03-25T03:07:46;8.00;;;1.60;;
84889;SDS011;75153;52.222;5.160;2024-03-25T03:10:12;7.57;;;1.00;;
84889;SDS011;75153;52.222;5.160;2024-03-25T03:12:37;8.13;;;1.20;;
84889;SDS011;75153;52.222;5.160;2024-03-25T03:15:02;14.10;;;1.43;;
84889;SDS011;75153;52.222;5.160;2024-03-25T03:17:28;11.05;;;1.52;;
84889;SDS011;75153;52.222;5.160;2024-03-25T03:19:53;7.97;;;1.70;;
84889;SDS011;75153;52.222;5.160;2024-03-25T03:22:19;12.43;;;1.30;;
84889;SDS011;75153;52.222;5.160;2024-03-25T03:24:44;13.30;;;1.30;;
84889;SDS011;75153;52.222;5.160;2024-03-25T03:27:09;8.83;;;1.40;;
84889;SDS011;75153;52.222;5.160;2024-03-25T03:29:35;7.87;;;1.33;;
84889;SDS011;75153;52.222;5.160;2024-03-25T03:32:00;12.37;;;1.53;;
84889;SDS011;75153;52.222;5.160;2024-03-25T03:34:25;8.13;;;1.20;;
84889;SDS011;75153;52.222;5.160;2024-03-25T03:36:51;14.82;;;1.20;;
84889;SDS011;75153;52.222;5.160;2024-03-25T03:39:16;11.60;;;1.37;;
84889;SDS011;75153;52.222;5.160;2024-03-25T03:41:42;9.05;;;1.25;;
84889;SDS011;75153;52.222;5.160;2024-03-25T03:44:08;7.40;;;1.47;;
84889;SDS011;75153;52.222;5.160;2024-03-25T03:46:34;9.38;;;1.67;;
84889;SDS011;75153;52.222;5.160;2024-03-25T03:49:00;12.27;;;1.50;;
84889;SDS011;75153;52.222;5.160;2024-03-25T03:51:25;9.40;;;1.33;;
84889;SDS011;75153;52.222;5.160;2024-03-25T03:53:51;10.07;;;1.25;;
84889;SDS011;75153;52.222;5.160;2024-03-25T03:56:17;7.10;;;1.13;;
84889;SDS011;75153;52.222;5.160;2024-03-25T03:58:42;12.02;;;1.75;;
84889;SDS011;75153;52.222;5.160;2024-03-25T04:01:17;11.43;;;1.35;;
84889;SDS011;75153;52.222;5.160;2024-03-25T04:03:43;11.37;;;1.40;;
84889;SDS011;75153;52.222;5.160;2024-03-25T04:06:12;7.22;;;1.30;;
84889;SDS011;75153;52.222;5.160;2024-03-25T04:08:39;10.20;;;1.45;;
84889;SDS011;75153;52.222;5.160;2024-03-25T04:11:05;6.20;;;1.10;;
84889;SDS011;75153;52.222;5.160;2024-03-25T04:13:32;13.82;;;1.60;;
84889;SDS011;75153;52.222;5.160;2024-03-25T04:16:03;13.87;;;1.97;;
84889;SDS011;75153;52.222;5.160;2024-03-25T04:18:30;8.65;;;1.50;;
84889;SDS011;75153;52.222;5.160;2024-03-25T04:20:55;9.40;;;1.30;;
84889;SDS011;75153;52.222;5.160;2024-03-25T04:23:21;6.10;;;1.33;;
84889;SDS011;75153;52.222;5.160;2024-03-25T04:25:46;9.82;;;1.40;;
84889;SDS011;75153;52.222;5.160;2024-03-25T04:28:12;10.00;;;1.30;;
84889;SDS011;75153;52.222;5.160;2024-03-25T04:30:37;7.10;;;1.07;;
84889;SDS011;75153;52.222;5.160;2024-03-25T04:33:03;11.10;;;2.10;;
84889;SDS011;75153;52.222;5.160;2024-03-25T04:35:28;10.60;;;1.45;;
84889;SDS011;75153;52.222;5.160;2024-03-25T04:37:54;11.87;;;1.67;;
84889;SDS011;75153;52.222;5.160;2024-03-25T04:40:22;10.17;;;1.70;;
84889;SDS011;75153;52.222;5.160;2024-03-25T04:42:47;12.80;;;1.60;;
84889;SDS011;75153;52.222;5.160;2024-03-25T04:45:13;10.75;;;1.40;;
84889;SDS011;75153;52.222;5.160;2024-03-25T04:47:39;10.30;;;1.80;;
84889;SDS011;75153;52.222;5.160;2024-03-25T04:50:04;14.57;;;1.97;;
84889;SDS011;75153;52.222;5.160;2024-03-25T04:52:31;5.93;;;1.60;;
84889;SDS011;75153;52.222;5.160;2024-03-25T04:54:56;13.43;;;2.17;;
84889;SDS011;75153;52.222;5.160;2024-03-25T04:57:22;12.57;;;2.10;;
84889;SDS011;75153;52.222;5.160;2024-03-25T04:59:48;17.03;;;2.43;;
84889;SDS011;75153;52.222;5.160;2024-03-25T05:02:13;8.10;;;1.73;;
84889;SDS011;75153;52.222;5.160;2024-03-25T05:04:39;10.15;;;1.80;;
84889;SDS011;75153;52.222;5.160;2024-03-25T05:07:04;9.10;;;1.90;;
84889;SDS011;75153;52.222;5.160;2024-03-25T05:09:30;12.68;;;2.55;;
84889;SDS011;75153;52.222;5.160;2024-03-25T05:11:55;13.73;;;2.40;;
84889;SDS011;75153;52.222;5.160;2024-03-25T05:14:20;11.37;;;2.70;;
84889;SDS011;75153;52.222;5.160;2024-03-25T05:16:46;12.03;;;1.97;;
84889;SDS011;75153;52.222;5.160;2024-03-25T05:19:11;10.83;;;2.27;;
84889;SDS011;75153;52.222;5.160;2024-03-25T05:21:36;11.20;;;2.37;;
84889;SDS011;75153;52.222;5.160;2024-03-25T05:24:02;10.47;;;2.43;;
84889;SDS011;75153;52.222;5.160;2024-03-25T05:26:27;12.70;;;2.40;;
84889;SDS011;75153;52.222;5.160;2024-03-25T05:28:53;9.27;;;2.00;;
84889;SDS011;75153;52.222;5.160;2024-03-25T05:31:19;11.00;;;2.37;;
84889;SDS011;75153;52.222;5.160;2024-03-25T05:33:44;8.40;;;2.20;;
84889;SDS011;75153;52.222;5.160;2024-03-25T05:36:12;7.83;;;1.83;;
84889;SDS011;75153;52.222;5.160;2024-03-25T05:38:37;8.82;;;1.92;;
84889;SDS011;75153;52.222;5.160;2024-03-25T05:41:03;12.83;;;2.20;;
84889;SDS011;75153;52.222;5.160;2024-03-25T05:43:29;14.20;;;2.45;;
84889;SDS011;75153;52.222;5.160;2024-03-25T05:45:54;11.73;;;2.03;;
84889;SDS011;75153;52.222;5.160;2024-03-25T05:48:22;11.95;;;2.03;;
84889;SDS011;75153;52.222;5.160;2024-03-25T05:51:01;9.40;;;2.90;;
84889;SDS011;75153;52.222;5.160;2024-03-25T05:53:30;13.55;;;2.22;;
84889;SDS011;75153;52.222;5.160;2024-03-25T05:55:56;12.97;;;2.20;;
84889;SDS011;75153;52.222;5.160;2024-03-25T05:58:24;15.80;;;2.55;;
84889;SDS011;75153;52.222;5.160;2024-03-25T06:00:49;10.07;;;2.20;;
84889;SDS011;75153;52.222;5.160;2024-03-25T06:03:15;9.65;;;1.98;;
84889;SDS011;75153;52.222;5.160;2024-03-25T06:05:42;10.90;;;2.00;;
84889;SDS011;75153;52.222;5.160;2024-03-25T06:08:07;15.20;;;2.30;;
84889;SDS011;75153;52.222;5.160;2024-03-25T06:10:41;8.83;;;1.90;;
84889;SDS011;75153;52.222;5.160;2024-03-25T06:13:06;8.43;;;2.20;;
84889;SDS011;75153;52.222;5.160;2024-03-25T06:15:32;7.07;;;1.90;;
84889;SDS011;75153;52.222;5.160;2024-03-25T06:17:57;9.53;;;2.40;;
84889;SDS011;75153;52.222;5.160;2024-03-25T06:20:22;10.17;;;2.30;;
84889;SDS011;75153;52.222;5.160;2024-03-25T06:22:48;12.77;;;2.43;;
84889;SDS011;75153;52.222;5.160;2024-03-25T06:25:13;12.35;;;3.08;;
84889;SDS011;75153;52.222;5.160;2024-03-25T06:27:39;7.30;;;2.88;;
84889;SDS011;75153;52.222;5.160;2024-03-25T06:30:05;8.93;;;2.38;;
84889;SDS011;75153;52.222;5.160;2024-03-25T06:32:58;12.20;;;2.70;;
84889;SDS011;75153;52.222;5.160;2024-03-25T06:35:44;13.70;;;3.05;;
84889;SDS011;75153;52.222;5.160;2024-03-25T06:38:10;12.38;;;2.67;;
84889;SDS011;75153;52.222;5.160;2024-03-25T06:40:37;9.77;;;2.60;;
84889;SDS011;75153;52.222;5.160;2024-03-25T06:43:02;13.87;;;2.47;;
84889;SDS011;75153;52.222;5.160;2024-03-25T06:45:28;7.65;;;2.47;;
84889;SDS011;75153;52.222;5.160;2024-03-25T06:47:54;10.67;;;3.00;;
84889;SDS011;75153;52.222;5.160;2024-03-25T06:50:20;12.07;;;3.20;;
84889;SDS011;75153;52.222;5.160;2024-03-25T06:52:45;12.73;;;3.07;;
84889;SDS011;75153;52.222;5.160;2024-03-25T06:55:11;10.98;;;3.30;;
84889;SDS011;75153;52.222;5.160;2024-03-25T06:57:36;10.45;;;3.17;;
84889;SDS011;75153;52.222;5.160;2024-03-25T07:00:02;13.07;;;3.73;;
84889;SDS011;75153;52.222;5.160;2024-03-25T07:02:31;9.45;;;3.58;;
84889;SDS011;75153;52.222;5.160;2024-03-25T07:04:57;8.30;;;3.17;;
84889;SDS011;75153;52.222;5.160;2024-03-25T07:07:22;14.77;;;4.47;;
84889;SDS011;75153;52.222;5.160;2024-03-25T07:09:47;13.67;;;3.13;;
84889;SDS011;75153;52.222;5.160;2024-03-25T07:12:13;12.05;;;3.03;;
84889;SDS011;75153;52.222;5.160;2024-03-25T07:14:38;10.00;;;2.90;;
84889;SDS011;75153;52.222;5.160;2024-03-25T07:17:03;12.90;;;3.13;;
84889;SDS011;75153;52.222;5.160;2024-03-25T07:19:29;14.60;;;4.00;;
84889;SDS011;75153;52.222;5.160;2024-03-25T07:21:54;11.20;;;2.70;;
84889;SDS011;75153;52.222;5.160;2024-03-25T07:24:20;11.02;;;2.83;;
84889;SDS011;75153;52.222;5.160;2024-03-25T07:26:46;5.97;;;2.60;;
84889;SDS011;75153;52.222;5.160;2024-03-25T07:29:11;14.32;;;3.30;;
84889;SDS011;75153;52.222;5.160;2024-03-25T07:31:37;14.52;;;3.10;;
84889;SDS011;75153;52.222;5.160;2024-03-25T07:34:02;10.60;;;2.93;;
84889;SDS011;75153;52.222;5.160;2024-03-25T07:36:27;22.27;;;4.03;;
84889;SDS011;75153;52.222;5.160;2024-03-25T07:38:58;16.52;;;3.13;;
84889;SDS011;75153;52.222;5.160;2024-03-25T07:41:23;16.77;;;2.83;;
84889;SDS011;75153;52.222;5.160;2024-03-25T07:43:48;15.13;;;3.73;;
84889;SDS011;75153;52.222;5.160;2024-03-25T07:46:14;14.03;;;2.93;;
84889;SDS011;75153;52.222;5.160;2024-03-25T07:48:39;10.23;;;2.60;;
84889;SDS011;75153;52.222;5.160;2024-03-25T07:51:05;14.07;;;2.90;;
84889;SDS011;75153;52.222;5.160;2024-03-25T07:53:31;12.57;;;2.80;;
84889;SDS011;75153;52.222;5.160;2024-03-25T07:55:56;8.83;;;2.47;;
84889;SDS011;75153;52.222;5.160;2024-03-25T07:58:21;8.10;;;2.20;;
84889;SDS011;75153;52.222;5.160;2024-03-25T08:00:48;13.98;;;3.05;;
84889;SDS011;75153;52.222;5.160;2024-03-25T08:03:13;14.23;;;2.97;;
84889;SDS011;75153;52.222;5.160;2024-03-25T08:05:38;10.05;;;2.70;;
84889;SDS011;75153;52.222;5.160;2024-03-25T08:08:04;14.57;;;2.93;;
84889;SDS011;75153;52.222;5.160;2024-03-25T08:10:30;15.57;;;3.40;;
84889;SDS011;75153;52.222;5.160;2024-03-25T08:12:55;10.93;;;2.73;;
84889;SDS011;75153;52.222;5.160;2024-03-25T08:15:22;13.18;;;3.35;;
84889;SDS011;75153;52.222;5.160;2024-03-25T08:17:47;17.77;;;3.57;;
84889;SDS011;75153;52.222;5.160;2024-03-25T08:20:12;14.37;;;3.23;;
84889;SDS011;75153;52.222;5.160;2024-03-25T08:22:38;12.43;;;2.38;;
84889;SDS011;75153;52.222;5.160;2024-03-25T08:25:03;8.47;;;2.30;;
84889;SDS011;75153;52.222;5.160;2024-03-25T08:27:29;8.63;;;2.30;;
84889;SDS011;75153;52.222;5.160;2024-03-25T08:29:55;14.00;;;3.00;;
84889;SDS011;75153;52.222;5.160;2024-03-25T08:32:20;7.37;;;1.73;;
84889;SDS011;75153;52.222;5.160;2024-03-25T08:34:45;12.37;;;2.60;;
84889;SDS011;75153;52.222;5.160;2024-03-25T08:37:11;12.27;;;2.53;;
84889;SDS011;75153;52.222;5.160;2024-03-25T08:39:37;9.00;;;2.28;;
84889;SDS011;75153;52.222;5.160;2024-03-25T08:42:02;10.23;;;2.30;;
84889;SDS011;75153;52.222;5.160;2024-03-25T08:44:28;12.07;;;2.20;;
84889;SDS011;75153;52.222;5.160;2024-03-25T08:46:53;17.87;;;2.20;;
84889;SDS011;75153;52.222;5.160;2024-03-25T08:49:18;11.25;;;1.83;;
84889;SDS011;75153;52.222;5.160;2024-03-25T08:51:44;11.70;;;1.70;;
84889;SDS011;75153;52.222;5.160;2024-03-25T08:54:10;11.65;;;2.13;;
84889;SDS011;75153;52.222;5.160;2024-03-25T08:56:35;9.57;;;1.50;;
84889;SDS011;75153;52.222;5.160;2024-03-25T08:59:01;8.97;;;1.57;;
84889;SDS011;75153;52.222;5.160;2024-03-25T09:01:26;5.33;;;1.23;;
84889;SDS011;75153;52.222;5.160;2024-03-25T09:03:52;8.25;;;1.60;;
84889;SDS011;75153;52.222;5.160;2024-03-25T09:06:17;10.27;;;1.90;;
84889;SDS011;75153;52.222;5.160;2024-03-25T09:08:43;9.33;;;1.97;;
84889;SDS011;75153;52.222;5.160;2024-03-25T09:11:34;8.07;;;1.60;;
84889;SDS011;75153;52.222;5.160;2024-03-25T09:14:00;10.27;;;1.60;;
84889;SDS011;75153;52.222;5.160;2024-03-25T09:16:28;10.80;;;1.52;;
84889;SDS011;75153;52.222;5.160;2024-03-25T09:18:53;9.90;;;1.50;;
84889;SDS011;75153;52.222;5.160;2024-03-25T09:21:18;7.37;;;2.00;;
84889;SDS011;75153;52.222;5.160;2024-03-25T09:23:44;13.25;;;1.83;;
84889;SDS011;75153;52.222;5.160;2024-03-25T09:26:09;8.43;;;1.73;;
84889;SDS011;75153;52.222;5.160;2024-03-25T09:28:35;12.33;;;1.73;;
84889;SDS011;75153;52.222;5.160;2024-03-25T09:31:01;12.13;;;2.47;;
84889;SDS011;75153;52.222;5.160;2024-03-25T09:33:26;12.80;;;2.20;;
84889;SDS011;75153;52.222;5.160;2024-03-25T09:35:52;11.73;;;1.60;;
84889;SDS011;75153;52.222;5.160;2024-03-25T09:38:17;10.27;;;2.33;;
84889;SDS011;75153;52.222;5.160;2024-03-25T09:40:42;9.47;;;1.80;;
84889;SDS011;75153;52.222;5.160;2024-03-25T09:43:16;7.83;;;2.00;;
84889;SDS011;75153;52.222;5.160;2024-03-25T09:45:48;9.07;;;1.55;;
84889;SDS011;75153;52.222;5.160;2024-03-25T09:48:15;7.05;;;1.20;;
84889;SDS011;75153;52.222;5.160;2024-03-25T09:50:42;11.32;;;2.42;;
84889;SDS011;75153;52.222;5.160;2024-03-25T09:53:09;10.67;;;1.60;;
84889;SDS011;75153;52.222;5.160;2024-03-25T09:55:34;9.40;;;1.80;;
84889;SDS011;75153;52.222;5.160;2024-03-25T09:58:00;9.23;;;2.27;;
84889;SDS011;75153;52.222;5.160;2024-03-25T10:00:27;10.98;;;1.88;;
84889;SDS011;75153;52.222;5.160;2024-03-25T10:02:53;8.20;;;1.30;;
84889;SDS011;75153;52.222;5.160;2024-03-25T10:05:19;17.63;;;2.58;;
84889;SDS011;75153;52.222;5.160;2024-03-25T10:07:45;9.80;;;1.73;;
84889;SDS011;75153;52.222;5.160;2024-03-25T10:10:10;6.88;;;1.55;;
84889;SDS011;75153;52.222;5.160;2024-03-25T10:12:36;10.90;;;1.73;;
84889;SDS011;75153;52.222;5.160;2024-03-25T10:15:02;11.60;;;2.30;;
84889;SDS011;75153;52.222;5.160;2024-03-25T10:17:30;12.40;;;2.40;;
84889;SDS011;75153;52.222;5.160;2024-03-25T10:19:56;7.57;;;1.60;;
84889;SDS011;75153;52.222;5.160;2024-03-25T10:22:21;9.73;;;1.80;;
84889;SDS011;75153;52.222;5.160;2024-03-25T10:24:46;10.02;;;1.60;;
84889;SDS011;75153;52.222;5.160;2024-03-25T10:27:22;8.97;;;2.13;;
84889;SDS011;75153;52.222;5.160;2024-03-25T10:29:57;9.60;;;2.20;;
84889;SDS011;75153;52.222;5.160;2024-03-25T10:32:22;11.50;;;2.33;;
84889;SDS011;75153;52.222;5.160;2024-03-25T10:34:49;5.80;;;1.60;;
84889;SDS011;75153;52.222;5.160;2024-03-25T10:37:15;9.13;;;1.67;;
84889;SDS011;75153;52.222;5.160;2024-03-25T10:39:43;8.23;;;1.98;;
84889;SDS011;75153;52.222;5.160;2024-03-25T10:42:18;4.25;;;1.35;;
84889;SDS011;75153;52.222;5.160;2024-03-25T10:44:44;13.30;;;2.27;;
84889;SDS011;75153;52.222;5.160;2024-03-25T10:47:15;10.88;;;2.00;;
84889;SDS011;75153;52.222;5.160;2024-03-25T10:52:21;11.43;;;2.38;;
84889;SDS011;75153;52.222;5.160;2024-03-25T10:54:47;7.03;;;1.60;;
84889;SDS011;75153;52.222;5.160;2024-03-25T10:57:13;5.20;;;1.65;;
84889;SDS011;75153;52.222;5.160;2024-03-25T10:59:39;10.80;;;1.83;;
84889;SDS011;75153;52.222;5.160;2024-03-25T11:02:07;9.77;;;2.25;;
84889;SDS011;75153;52.222;5.160;2024-03-25T11:04:33;9.13;;;2.00;;
84889;SDS011;75153;52.222;5.160;2024-03-25T11:07:13;13.17;;;2.43;;
84889;SDS011;75153;52.222;5.160;2024-03-25T11:09:40;7.05;;;2.60;;
84889;SDS011;75153;52.222;5.160;2024-03-25T11:12:06;8.98;;;2.58;;
84889;SDS011;75153;52.222;5.160;2024-03-25T11:14:35;5.53;;;2.03;;
84889;SDS011;75153;52.222;5.160;2024-03-25T11:17:00;8.33;;;2.97;;
84889;SDS011;75153;52.222;5.160;2024-03-25T11:19:27;9.05;;;3.13;;
84889;SDS011;75153;52.222;5.160;2024-03-25T11:22:06;9.07;;;2.75;;
84889;SDS011;75153;52.222;5.160;2024-03-25T11:24:33;6.83;;;2.93;;
84889;SDS011;75153;52.222;5.160;2024-03-25T11:27:01;10.75;;;3.50;;
84889;SDS011;75153;52.222;5.160;2024-03-25T11:29:27;9.88;;;3.22;;
84889;SDS011;75153;52.222;5.160;2024-03-25T11:31:55;10.73;;;3.97;;
84889;SDS011;75153;52.222;5.160;2024-03-25T11:34:23;8.67;;;2.77;;
84889;SDS011;75153;52.222;5.160;2024-03-25T11:36:49;6.93;;;2.80;;
84889;SDS011;75153;52.222;5.160;2024-03-25T11:39:14;10.07;;;2.80;;
84889;SDS011;75153;52.222;5.160;2024-03-25T11:41:40;10.07;;;3.00;;
84889;SDS011;75153;52.222;5.160;2024-03-25T11:44:07;5.75;;;2.15;;
84889;SDS011;75153;52.222;5.160;2024-03-25T11:46:33;8.07;;;2.40;;
84889;SDS011;75153;52.222;5.160;2024-03-25T11:49:05;6.55;;;2.50;;
84889;SDS011;75153;52.222;5.160;2024-03-25T11:51:37;3.70;;;1.92;;
84889;SDS011;75153;52.222;5.160;2024-03-25T11:54:06;6.45;;;1.90;;
84889;SDS011;75153;52.222;5.160;2024-03-25T11:56:31;4.57;;;1.80;;
84889;SDS011;75153;52.222;5.160;2024-03-25T11:59:01;3.92;;;1.70;;
84889;SDS011;75153;52.222;5.160;2024-03-25T12:01:28;6.47;;;2.67;;
84889;SDS011;75153;52.222;5.160;2024-03-25T12:03:53;6.55;;;3.10;;
84889;SDS011;75153;52.222;5.160;2024-03-25T12:06:19;7.17;;;2.40;;
84889;SDS011;75153;52.222;5.160;2024-03-25T12:08:45;6.22;;;2.80;;
84889;SDS011;75153;52.222;5.160;2024-03-25T12:11:30;7.47;;;2.70;;
84889;SDS011;75153;52.222;5.160;2024-03-25T12:13:56;6.97;;;2.90;;
84889;SDS011;75153;52.222;5.160;2024-03-25T12:16:23;7.55;;;3.60;;
84889;SDS011;75153;52.222;5.160;2024-03-25T12:18:48;7.38;;;3.20;;
84889;SDS011;75153;52.222;5.160;2024-03-25T12:21:14;6.72;;;3.33;;
84889;SDS011;75153;52.222;5.160;2024-03-25T12:23:40;6.27;;;2.50;;
84889;SDS011;75153;52.222;5.160;2024-03-25T12:26:07;7.75;;;3.63;;
84889;SDS011;75153;52.222;5.160;2024-03-25T12:28:33;6.80;;;3.35;;
84889;SDS011;75153;52.222;5.160;2024-03-25T12:31:02;6.13;;;3.03;;
84889;SDS011;75153;52.222;5.160;2024-03-25T12:33:40;8.45;;;2.80;;
84889;SDS011;75153;52.222;5.160;2024-03-25T12:36:08;8.38;;;3.22;;
84889;SDS011;75153;52.222;5.160;2024-03-25T12:38:36;9.75;;;3.22;;
84889;SDS011;75153;52.222;5.160;2024-03-25T12:41:05;5.70;;;3.40;;
84889;SDS011;75153;52.222;5.160;2024-03-25T12:43:32;7.85;;;3.30;;
84889;SDS011;75153;52.222;5.160;2024-03-25T12:45:58;8.40;;;3.10;;
84889;SDS011;75153;52.222;5.160;2024-03-25T12:48:24;5.93;;;2.50;;
84889;SDS011;75153;52.222;5.160;2024-03-25T12:50:50;4.50;;;1.80;;
84889;SDS011;75153;52.222;5.160;2024-03-25T12:53:16;7.75;;;2.30;;
84889;SDS011;75153;52.222;5.160;2024-03-25T12:55:44;2.60;;;1.67;;
84889;SDS011;75153;52.222;5.160;2024-03-25T12:58:10;4.45;;;2.35;;
84889;SDS011;75153;52.222;5.160;2024-03-25T13:00:36;5.07;;;2.30;;
84889;SDS011;75153;52.222;5.160;2024-03-25T13:03:02;2.87;;;1.67;;
84889;SDS011;75153;52.222;5.160;2024-03-25T13:05:27;5.53;;;2.15;;
84889;SDS011;75153;52.222;5.160;2024-03-25T13:07:53;4.07;;;2.00;;
84889;SDS011;75153;52.222;5.160;2024-03-25T13:10:20;3.95;;;1.50;;
84889;SDS011;75153;52.222;5.160;2024-03-25T13:12:45;6.55;;;1.80;;
84889;SDS011;75153;52.222;5.160;2024-03-25T13:15:11;4.33;;;1.80;;
84889;SDS011;75153;52.222;5.160;2024-03-25T13:17:36;5.25;;;2.15;;
84889;SDS011;75153;52.222;5.160;2024-03-25T13:20:02;6.13;;;2.23;;
84889;SDS011;75153;52.222;5.160;2024-03-25T13:22:29;5.28;;;1.60;;
84889;SDS011;75153;52.222;5.160;2024-03-25T13:24:56;3.60;;;1.38;;
84889;SDS011;75153;52.222;5.160;2024-03-25T13:27:21;5.70;;;1.60;;
84889;SDS011;75153;52.222;5.160;2024-03-25T13:29:46;4.78;;;1.63;;
84889;SDS011;75153;52.222;5.160;2024-03-25T13:32:12;8.95;;;1.85;;
84889;SDS011;75153;52.222;5.160;2024-03-25T13:34:37;3.97;;;1.50;;
84889;SDS011;75153;52.222;5.160;2024-03-25T13:37:03;4.77;;;1.77;;
84889;SDS011;75153;52.222;5.160;2024-03-25T13:39:28;3.60;;;1.20;;
84889;SDS011;75153;52.222;5.160;2024-03-25T13:41:54;6.05;;;1.65;;
84889;SDS011;75153;52.222;5.160;2024-03-25T13:44:19;6.53;;;1.80;;
84889;SDS011;75153;52.222;5.160;2024-03-25T13:46:44;5.27;;;1.80;;
84889;SDS011;75153;52.222;5.160;2024-03-25T13:49:10;4.57;;;1.43;;
84889;SDS011;75153;52.222;5.160;2024-03-25T13:51:36;4.40;;;1.30;;
84889;SDS011;75153;52.222;5.160;2024-03-25T13:54:01;4.00;;;2.13;;
84889;SDS011;75153;52.222;5.160;2024-03-25T13:56:27;5.60;;;1.90;;
84889;SDS011;75153;52.222;5.160;2024-03-25T13:58:53;3.67;;;1.40;;
84889;SDS011;75153;52.222;5.160;2024-03-25T14:01:18;4.43;;;1.27;;
84889;SDS011;75153;52.222;5.160;2024-03-25T14:03:44;6.32;;;1.80;;
84889;SDS011;75153;52.222;5.160;2024-03-25T14:06:11;7.77;;;1.80;;
84889;SDS011;75153;52.222;5.160;2024-03-25T14:08:36;3.92;;;1.60;;
84889;SDS011;75153;52.222;5.160;2024-03-25T14:11:02;5.03;;;2.23;;
84889;SDS011;75153;52.222;5.160;2024-03-25T14:13:28;5.18;;;1.92;;
84889;SDS011;75153;52.222;5.160;2024-03-25T14:15:54;3.65;;;1.70;;
84889;SDS011;75153;52.222;5.160;2024-03-25T14:18:19;3.53;;;1.60;;
84889;SDS011;75153;52.222;5.160;2024-03-25T14:20:44;3.67;;;1.90;;
84889;SDS011;75153;52.222;5.160;2024-03-25T14:23:10;6.63;;;2.40;;
84889;SDS011;75153;52.222;5.160;2024-03-25T14:25:36;4.10;;;1.63;;
84889;SDS011;75153;52.222;5.160;2024-03-25T14:28:02;7.10;;;2.55;;
84889;SDS011;75153;52.222;5.160;2024-03-25T14:30:28;4.90;;;1.98;;
84889;SDS011;75153;52.222;5.160;2024-03-25T14:32:53;8.40;;;2.13;;
84889;SDS011;75153;52.222;5.160;2024-03-25T14:35:20;5.40;;;1.90;;
84889;SDS011;75153;52.222;5.160;2024-03-25T14:37:46;3.17;;;1.80;;